sensor_id;sensor_type;location;lat;lon;timestamp;P1;durP1;ratioP1;P2;durP2;ratioP2
15381;SDS011;7789;51.364;12.358;2023-10-08T00:03:36;5.45;;;3.15;;
15381;SDS011;7789;51.364;12.358;2023-10-08T00:08:40;6.55;;;3.80;;
15381;SDS011;7789;51.364;12.358;2023-10-08T00:13:45;5.25;;;3.30;;
15381;SDS011;7789;51.364;12.358;2023-10-08T00:18:50;6.03;;;3.20;;
15381;SDS011;7789;51.364;12.358;2023-10-08T00:23:54;6.80;;;3.40;;
15381;SDS011;7789;51.364;12.358;2023-10-08T00:29:03;5.88;;;3.17;;
15381;SDS011;7789;51.364;12.358;2023-10-08T00:34:17;4.90;;;3.00;;
15381;SDS011;7789;51.364;12.358;2023-10-08T00:39:22;7.20;;;3.80;;
15381;SDS011;7789;51.364;12.358;2023-10-08T00:44:27;6.32;;;3.22;;
15381;SDS011;7789;51.364;12.358;2023-10-08T00:49:32;7.45;;;3.80;;
15381;SDS011;7789;51.364;12.358;2023-10-08T00:54:50;7.15;;;3.78;;
15381;SDS011;7789;51.364;12.358;2023-10-08T01:00:11;10.38;;;3.47;;
15381;SDS011;7789;51.364;12.358;2023-10-08T01:05:23;7.80;;;3.47;;
15381;SDS011;7789;51.364;12.358;2023-10-08T01:10:44;8.43;;;4.00;;
15381;SDS011;7789;51.364;12.358;2023-10-08T01:15:50;7.25;;;3.88;;
15381;SDS011;7789;51.364;12.358;2023-10-08T01:20:54;11.35;;;3.80;;
15381;SDS011;7789;51.364;12.358;2023-10-08T01:26:07;12.10;;;3.72;;
15381;SDS011;7789;51.364;12.358;2023-10-08T01:31:14;6.40;;;2.80;;
15381;SDS011;7789;51.364;12.358;2023-10-08T01:36:18;7.07;;;3.08;;
15381;SDS011;7789;51.364;12.358;2023-10-08T01:41:28;1.35;;;1.25;;
15381;SDS011;7789;51.364;12.358;2023-10-08T01:46:33;0.68;;;0.50;;
15381;SDS011;7789;51.364;12.358;2023-10-08T01:51:37;0.68;;;0.30;;
15381;SDS011;7789;51.364;12.358;2023-10-08T01:56:48;0.30;;;0.20;;
15381;SDS011;7789;51.364;12.358;2023-10-08T02:01:52;0.90;;;0.20;;
15381;SDS011;7789;51.364;12.358;2023-10-08T02:06:58;0.60;;;0.20;;
15381;SDS011;7789;51.364;12.358;2023-10-08T02:12:04;0.20;;;0.10;;
15381;SDS011;7789;51.364;12.358;2023-10-08T02:17:08;0.20;;;0.10;;
15381;SDS011;7789;51.364;12.358;2023-10-08T02:22:12;0.45;;;0.40;;
15381;SDS011;7789;51.364;12.358;2023-10-08T02:27:17;0.55;;;0.10;;
15381;SDS011;7789;51.364;12.358;2023-10-08T02:32:20;0.20;;;0.10;;
15381;SDS011;7789;51.364;12.358;2023-10-08T02:37:25;0.73;;;0.10;;
15381;SDS011;7789;51.364;12.358;2023-10-08T02:42:32;1.65;;;0.20;;
15381;SDS011;7789;51.364;12.358;2023-10-08T02:47:36;0.35;;;0.20;;
15381;SDS011;7789;51.364;12.358;2023-10-08T02:52:40;0.20;;;0.10;;
15381;SDS011;7789;51.364;12.358;2023-10-08T02:57:44;0.55;;;0.20;;
15381;SDS011;7789;51.364;12.358;2023-10-08T03:02:48;0.30;;;0.30;;
15381;SDS011;7789;51.364;12.358;2023-10-08T03:07:53;0.38;;;0.38;;
15381;SDS011;7789;51.364;12.358;2023-10-08T03:13:03;0.88;;;0.30;;
15381;SDS011;7789;51.364;12.358;2023-10-08T03:18:08;0.20;;;0.15;;
15381;SDS011;7789;51.364;12.358;2023-10-08T03:23:16;1.20;;;0.20;;
15381;SDS011;7789;51.364;12.358;2023-10-08T03:28:40;0.30;;;0.20;;
15381;SDS011;7789;51.364;12.358;2023-10-08T03:33:44;0.20;;;0.20;;
15381;SDS011;7789;51.364;12.358;2023-10-08T03:38:51;0.30;;;0.20;;
15381;SDS011;7789;51.364;12.358;2023-10-08T03:43:56;0.32;;;0.17;;
15381;SDS011;7789;51.364;12.358;2023-10-08T03:49:09;0.20;;;0.20;;
15381;SDS011;7789;51.364;12.358;2023-10-08T03:54:26;0.30;;;0.10;;
15381;SDS011;7789;51.364;12.358;2023-10-08T03:59:37;0.20;;;0.20;;
15381;SDS011;7789;51.364;12.358;2023-10-08T04:04:45;0.30;;;0.20;;
15381;SDS011;7789;51.364;12.358;2023-10-08T04:09:52;0.22;;;0.22;;
15381;SDS011;7789;51.364;12.358;2023-10-08T04:15:09;0.50;;;0.47;;
15381;SDS011;7789;51.364;12.358;2023-10-08T04:20:14;1.05;;;0.50;;
15381;SDS011;7789;51.364;12.358;2023-10-08T04:25:32;0.93;;;0.82;;
15381;SDS011;7789;51.364;12.358;2023-10-08T04:30:39;0.73;;;0.60;;
15381;SDS011;7789;51.364;12.358;2023-10-08T04:35:43;1.75;;;0.95;;
15381;SDS011;7789;51.364;12.358;2023-10-08T04:40:53;3.65;;;1.42;;
15381;SDS011;7789;51.364;12.358;2023-10-08T04:46:05;3.25;;;1.50;;
15381;SDS011;7789;51.364;12.358;2023-10-08T04:51:21;1.77;;;0.80;;
15381;SDS011;7789;51.364;12.358;2023-10-08T04:56:25;1.48;;;0.70;;
15381;SDS011;7789;51.364;12.358;2023-10-08T05:01:32;2.38;;;0.93;;
15381;SDS011;7789;51.364;12.358;2023-10-08T05:06:49;2.50;;;0.70;;
15381;SDS011;7789;51.364;12.358;2023-10-08T05:12:19;4.20;;;1.00;;
15381;SDS011;7789;51.364;12.358;2023-10-08T05:17:37;2.72;;;0.70;;
15381;SDS011;7789;51.364;12.358;2023-10-08T05:22:58;5.30;;;1.00;;
15381;SDS011;7789;51.364;12.358;2023-10-08T05:28:22;3.87;;;1.20;;
15381;SDS011;7789;51.364;12.358;2023-10-08T05:33:28;6.03;;;1.45;;
15381;SDS011;7789;51.364;12.358;2023-10-08T05:38:53;3.63;;;1.25;;
15381;SDS011;7789;51.364;12.358;2023-10-08T05:44:21;2.33;;;0.80;;
15381;SDS011;7789;51.364;12.358;2023-10-08T05:49:29;4.55;;;1.17;;
15381;SDS011;7789;51.364;12.358;2023-10-08T05:54:45;5.25;;;1.20;;
15381;SDS011;7789;51.364;12.358;2023-10-08T06:00:11;3.08;;;1.20;;
15381;SDS011;7789;51.364;12.358;2023-10-08T06:05:35;3.53;;;1.40;;
15381;SDS011;7789;51.364;12.358;2023-10-08T06:10:49;3.50;;;1.10;;
15381;SDS011;7789;51.364;12.358;2023-10-08T06:16:02;3.65;;;1.48;;
15381;SDS011;7789;51.364;12.358;2023-10-08T06:21:12;2.63;;;0.90;;
15381;SDS011;7789;51.364;12.358;2023-10-08T06:26:17;2.45;;;1.20;;
15381;SDS011;7789;51.364;12.358;2023-10-08T06:31:24;4.40;;;1.33;;
15381;SDS011;7789;51.364;12.358;2023-10-08T06:36:31;5.18;;;1.63;;
15381;SDS011;7789;51.364;12.358;2023-10-08T06:41:35;3.88;;;1.42;;
15381;SDS011;7789;51.364;12.358;2023-10-08T06:46:49;4.13;;;1.80;;
15381;SDS011;7789;51.364;12.358;2023-10-08T06:51:58;5.30;;;1.85;;
15381;SDS011;7789;51.364;12.358;2023-10-08T06:57:03;5.45;;;1.85;;
15381;SDS011;7789;51.364;12.358;2023-10-08T07:02:16;3.17;;;1.70;;
15381;SDS011;7789;51.364;12.358;2023-10-08T07:07:21;3.33;;;1.75;;
15381;SDS011;7789;51.364;12.358;2023-10-08T07:12:28;4.80;;;1.60;;
15381;SDS011;7789;51.364;12.358;2023-10-08T07:17:35;4.07;;;1.52;;
15381;SDS011;7789;51.364;12.358;2023-10-08T07:22:44;6.70;;;1.50;;
15381;SDS011;7789;51.364;12.358;2023-10-08T07:27:50;6.43;;;2.03;;
15381;SDS011;7789;51.364;12.358;2023-10-08T07:32:53;4.20;;;1.63;;
15381;SDS011;7789;51.364;12.358;2023-10-08T07:37:58;4.45;;;1.50;;
15381;SDS011;7789;51.364;12.358;2023-10-08T07:43:04;3.87;;;1.60;;
15381;SDS011;7789;51.364;12.358;2023-10-08T07:48:10;7.53;;;1.43;;
15381;SDS011;7789;51.364;12.358;2023-10-08T07:53:19;8.07;;;1.57;;
15381;SDS011;7789;51.364;12.358;2023-10-08T07:58:23;4.93;;;1.73;;
15381;SDS011;7789;51.364;12.358;2023-10-08T08:03:27;6.07;;;1.67;;
15381;SDS011;7789;51.364;12.358;2023-10-08T08:08:33;5.53;;;1.70;;
15381;SDS011;7789;51.364;12.358;2023-10-08T08:13:38;6.07;;;1.70;;
15381;SDS011;7789;51.364;12.358;2023-10-08T08:18:44;6.43;;;2.90;;
15381;SDS011;7789;51.364;12.358;2023-10-08T08:23:50;5.10;;;2.05;;
15381;SDS011;7789;51.364;12.358;2023-10-08T08:28:54;4.88;;;1.88;;
15381;SDS011;7789;51.364;12.358;2023-10-08T08:34:02;5.35;;;2.20;;
15381;SDS011;7789;51.364;12.358;2023-10-08T08:39:13;5.22;;;2.00;;
15381;SDS011;7789;51.364;12.358;2023-10-08T08:44:32;3.38;;;1.65;;
15381;SDS011;7789;51.364;12.358;2023-10-08T08:49:41;7.03;;;2.05;;
15381;SDS011;7789;51.364;12.358;2023-10-08T08:54:48;5.03;;;1.90;;
15381;SDS011;7789;51.364;12.358;2023-10-08T08:59:53;7.22;;;2.15;;
15381;SDS011;7789;51.364;12.358;2023-10-08T09:05:00;7.18;;;2.83;;
15381;SDS011;7789;51.364;12.358;2023-10-08T09:10:16;5.68;;;2.53;;
15381;SDS011;7789;51.364;12.358;2023-10-08T09:15:20;5.15;;;1.95;;
15381;SDS011;7789;51.364;12.358;2023-10-08T09:20:24;4.13;;;1.75;;
15381;SDS011;7789;51.364;12.358;2023-10-08T09:25:31;7.60;;;3.33;;
15381;SDS011;7789;51.364;12.358;2023-10-08T09:30:35;5.50;;;2.15;;
15381;SDS011;7789;51.364;12.358;2023-10-08T09:35:40;6.47;;;2.50;;
15381;SDS011;7789;51.364;12.358;2023-10-08T09:40:46;4.97;;;2.20;;
15381;SDS011;7789;51.364;12.358;2023-10-08T09:45:51;6.43;;;3.08;;
15381;SDS011;7789;51.364;12.358;2023-10-08T09:50:59;5.65;;;2.92;;
15381;SDS011;7789;51.364;12.358;2023-10-08T09:56:12;5.45;;;2.97;;
15381;SDS011;7789;51.364;12.358;2023-10-08T10:01:17;5.53;;;3.40;;
15381;SDS011;7789;51.364;12.358;2023-10-08T10:06:24;5.55;;;3.20;;
15381;SDS011;7789;51.364;12.358;2023-10-08T10:11:32;9.45;;;4.47;;
15381;SDS011;7789;51.364;12.358;2023-10-08T10:16:36;6.45;;;4.10;;
15381;SDS011;7789;51.364;12.358;2023-10-08T10:21:43;5.78;;;4.25;;
15381;SDS011;7789;51.364;12.358;2023-10-08T10:26:51;8.27;;;4.28;;
15381;SDS011;7789;51.364;12.358;2023-10-08T10:32:14;6.03;;;3.80;;
15381;SDS011;7789;51.364;12.358;2023-10-08T10:37:19;4.63;;;3.00;;
15381;SDS011;7789;51.364;12.358;2023-10-08T10:42:26;5.28;;;3.55;;
15381;SDS011;7789;51.364;12.358;2023-10-08T10:47:35;6.82;;;3.28;;
15381;SDS011;7789;51.364;12.358;2023-10-08T10:52:46;5.78;;;3.20;;
15381;SDS011;7789;51.364;12.358;2023-10-08T10:57:56;6.32;;;3.15;;
15381;SDS011;7789;51.364;12.358;2023-10-08T11:03:07;7.55;;;2.95;;
15381;SDS011;7789;51.364;12.358;2023-10-08T11:08:18;6.32;;;3.15;;
15381;SDS011;7789;51.364;12.358;2023-10-08T11:13:27;3.97;;;2.78;;
15381;SDS011;7789;51.364;12.358;2023-10-08T11:18:42;8.05;;;2.30;;
15381;SDS011;7789;51.364;12.358;2023-10-08T11:23:47;5.72;;;2.25;;
15381;SDS011;7789;51.364;12.358;2023-10-08T11:28:59;4.85;;;2.50;;
15381;SDS011;7789;51.364;12.358;2023-10-08T11:34:05;7.07;;;2.60;;
15381;SDS011;7789;51.364;12.358;2023-10-08T11:39:15;5.38;;;2.55;;
15381;SDS011;7789;51.364;12.358;2023-10-08T11:44:27;6.00;;;2.60;;
15381;SDS011;7789;51.364;12.358;2023-10-08T11:49:34;6.95;;;1.98;;
15381;SDS011;7789;51.364;12.358;2023-10-08T11:54:38;8.57;;;3.40;;
15381;SDS011;7789;51.364;12.358;2023-10-08T11:59:45;5.72;;;2.40;;
15381;SDS011;7789;51.364;12.358;2023-10-08T12:04:49;4.60;;;2.42;;
15381;SDS011;7789;51.364;12.358;2023-10-08T12:10:00;5.85;;;2.60;;
15381;SDS011;7789;51.364;12.358;2023-10-08T12:15:05;6.38;;;2.20;;
15381;SDS011;7789;51.364;12.358;2023-10-08T12:20:11;5.30;;;2.10;;
15381;SDS011;7789;51.364;12.358;2023-10-08T12:25:26;4.70;;;2.20;;
15381;SDS011;7789;51.364;12.358;2023-10-08T12:30:31;4.78;;;2.35;;
15381;SDS011;7789;51.364;12.358;2023-10-08T12:35:43;5.57;;;2.40;;
15381;SDS011;7789;51.364;12.358;2023-10-08T12:40:48;4.43;;;2.13;;
15381;SDS011;7789;51.364;12.358;2023-10-08T12:45:56;5.45;;;2.10;;
15381;SDS011;7789;51.364;12.358;2023-10-08T12:51:00;4.50;;;1.83;;
15381;SDS011;7789;51.364;12.358;2023-10-08T12:56:09;4.03;;;2.25;;
15381;SDS011;7789;51.364;12.358;2023-10-08T13:01:22;6.13;;;2.42;;
15381;SDS011;7789;51.364;12.358;2023-10-08T13:06:42;6.25;;;2.03;;
15381;SDS011;7789;51.364;12.358;2023-10-08T13:11:59;6.53;;;2.00;;
15381;SDS011;7789;51.364;12.358;2023-10-08T13:17:05;4.35;;;1.80;;
15381;SDS011;7789;51.364;12.358;2023-10-08T13:22:12;5.90;;;1.90;;
15381;SDS011;7789;51.364;12.358;2023-10-08T13:27:24;9.82;;;2.40;;
15381;SDS011;7789;51.364;12.358;2023-10-08T13:32:29;6.95;;;2.40;;
15381;SDS011;7789;51.364;12.358;2023-10-08T13:37:35;4.65;;;2.10;;
15381;SDS011;7789;51.364;12.358;2023-10-08T13:42:39;6.80;;;2.25;;
15381;SDS011;7789;51.364;12.358;2023-10-08T13:47:44;4.65;;;2.13;;
15381;SDS011;7789;51.364;12.358;2023-10-08T13:52:49;6.05;;;2.20;;
15381;SDS011;7789;51.364;12.358;2023-10-08T13:57:57;5.97;;;1.95;;
15381;SDS011;7789;51.364;12.358;2023-10-08T14:03:05;4.88;;;1.85;;
15381;SDS011;7789;51.364;12.358;2023-10-08T14:08:16;4.07;;;2.00;;
15381;SDS011;7789;51.364;12.358;2023-10-08T14:13:25;3.70;;;1.80;;
15381;SDS011;7789;51.364;12.358;2023-10-08T14:18:52;5.35;;;2.00;;
15381;SDS011;7789;51.364;12.358;2023-10-08T14:23:56;4.93;;;1.92;;
15381;SDS011;7789;51.364;12.358;2023-10-08T14:29:05;4.00;;;1.70;;
15381;SDS011;7789;51.364;12.358;2023-10-08T14:34:14;6.07;;;2.03;;
15381;SDS011;7789;51.364;12.358;2023-10-08T14:39:55;7.53;;;2.17;;
15381;SDS011;7789;51.364;12.358;2023-10-08T14:50:59;7.18;;;2.33;;
15381;SDS011;7789;51.364;12.358;2023-10-08T14:56:04;5.65;;;2.05;;
15381;SDS011;7789;51.364;12.358;2023-10-08T15:01:10;4.38;;;2.03;;
15381;SDS011;7789;51.364;12.358;2023-10-08T15:06:16;4.82;;;1.92;;
15381;SDS011;7789;51.364;12.358;2023-10-08T15:11:21;4.90;;;2.17;;
15381;SDS011;7789;51.364;12.358;2023-10-08T15:16:27;4.60;;;2.20;;
15381;SDS011;7789;51.364;12.358;2023-10-08T15:21:37;3.42;;;2.25;;
15381;SDS011;7789;51.364;12.358;2023-10-08T15:26:41;3.72;;;2.03;;
15381;SDS011;7789;51.364;12.358;2023-10-08T15:31:44;3.05;;;2.10;;
15381;SDS011;7789;51.364;12.358;2023-10-08T15:36:51;4.65;;;2.40;;
15381;SDS011;7789;51.364;12.358;2023-10-08T15:41:57;3.63;;;2.17;;
15381;SDS011;7789;51.364;12.358;2023-10-08T15:47:01;4.00;;;2.28;;
15381;SDS011;7789;51.364;12.358;2023-10-08T15:52:06;2.80;;;2.00;;
15381;SDS011;7789;51.364;12.358;2023-10-08T15:57:10;5.03;;;2.33;;
15381;SDS011;7789;51.364;12.358;2023-10-08T16:02:16;4.57;;;2.50;;
15381;SDS011;7789;51.364;12.358;2023-10-08T16:07:22;5.88;;;2.67;;
15381;SDS011;7789;51.364;12.358;2023-10-08T16:12:26;4.97;;;3.00;;
15381;SDS011;7789;51.364;12.358;2023-10-08T16:17:30;4.13;;;2.50;;
15381;SDS011;7789;51.364;12.358;2023-10-08T16:22:35;3.90;;;2.88;;
15381;SDS011;7789;51.364;12.358;2023-10-08T16:27:42;5.82;;;2.55;;
15381;SDS011;7789;51.364;12.358;2023-10-08T16:32:50;5.80;;;2.97;;
15381;SDS011;7789;51.364;12.358;2023-10-08T16:37:57;4.97;;;3.38;;
15381;SDS011;7789;51.364;12.358;2023-10-08T16:43:00;6.72;;;3.90;;
15381;SDS011;7789;51.364;12.358;2023-10-08T16:48:04;5.82;;;4.60;;
15381;SDS011;7789;51.364;12.358;2023-10-08T16:53:11;5.72;;;3.80;;
15381;SDS011;7789;51.364;12.358;2023-10-08T16:58:17;6.75;;;3.88;;
15381;SDS011;7789;51.364;12.358;2023-10-08T17:03:21;6.85;;;4.30;;
15381;SDS011;7789;51.364;12.358;2023-10-08T17:08:27;7.00;;;3.55;;
15381;SDS011;7789;51.364;12.358;2023-10-08T17:13:31;6.28;;;3.53;;
15381;SDS011;7789;51.364;12.358;2023-10-08T17:18:34;6.72;;;3.45;;
15381;SDS011;7789;51.364;12.358;2023-10-08T17:23:40;6.05;;;3.25;;
15381;SDS011;7789;51.364;12.358;2023-10-08T17:28:44;4.95;;;3.17;;
15381;SDS011;7789;51.364;12.358;2023-10-08T17:33:48;6.32;;;3.92;;
15381;SDS011;7789;51.364;12.358;2023-10-08T17:38:55;5.13;;;3.58;;
15381;SDS011;7789;51.364;12.358;2023-10-08T17:44:00;4.63;;;3.53;;
15381;SDS011;7789;51.364;12.358;2023-10-08T17:49:05;5.78;;;3.65;;
15381;SDS011;7789;51.364;12.358;2023-10-08T17:54:10;6.07;;;3.70;;
15381;SDS011;7789;51.364;12.358;2023-10-08T17:59:17;9.18;;;4.28;;
15381;SDS011;7789;51.364;12.358;2023-10-08T18:04:24;10.18;;;4.28;;
15381;SDS011;7789;51.364;12.358;2023-10-08T18:09:30;10.45;;;4.30;;
15381;SDS011;7789;51.364;12.358;2023-10-08T18:14:35;5.57;;;4.20;;
15381;SDS011;7789;51.364;12.358;2023-10-08T18:19:45;7.15;;;3.60;;
15381;SDS011;7789;51.364;12.358;2023-10-08T18:24:52;5.30;;;3.08;;
15381;SDS011;7789;51.364;12.358;2023-10-08T18:29:58;9.05;;;3.28;;
15381;SDS011;7789;51.364;12.358;2023-10-08T18:35:07;6.07;;;2.97;;
15381;SDS011;7789;51.364;12.358;2023-10-08T18:40:17;7.80;;;3.00;;
15381;SDS011;7789;51.364;12.358;2023-10-08T18:45:22;4.63;;;2.92;;
15381;SDS011;7789;51.364;12.358;2023-10-08T18:50:29;5.00;;;2.70;;
15381;SDS011;7789;51.364;12.358;2023-10-08T18:55:35;6.43;;;2.85;;
15381;SDS011;7789;51.364;12.358;2023-10-08T19:00:53;6.25;;;2.67;;
15381;SDS011;7789;51.364;12.358;2023-10-08T19:05:58;5.45;;;2.70;;
15381;SDS011;7789;51.364;12.358;2023-10-08T19:11:04;5.10;;;2.63;;
15381;SDS011;7789;51.364;12.358;2023-10-08T19:16:10;3.90;;;2.92;;
15381;SDS011;7789;51.364;12.358;2023-10-08T19:21:32;6.82;;;3.50;;
15381;SDS011;7789;51.364;12.358;2023-10-08T19:26:40;6.95;;;4.43;;
15381;SDS011;7789;51.364;12.358;2023-10-08T19:31:43;5.45;;;2.78;;
15381;SDS011;7789;51.364;12.358;2023-10-08T19:36:48;8.32;;;3.72;;
15381;SDS011;7789;51.364;12.358;2023-10-08T19:41:53;5.28;;;2.95;;
15381;SDS011;7789;51.364;12.358;2023-10-08T19:46:57;6.75;;;3.33;;
15381;SDS011;7789;51.364;12.358;2023-10-08T19:52:02;7.28;;;3.33;;
15381;SDS011;7789;51.364;12.358;2023-10-08T19:57:12;8.32;;;3.90;;
15381;SDS011;7789;51.364;12.358;2023-10-08T20:02:17;11.18;;;6.22;;
15381;SDS011;7789;51.364;12.358;2023-10-08T20:07:21;5.20;;;3.97;;
15381;SDS011;7789;51.364;12.358;2023-10-08T20:12:30;7.70;;;3.50;;
15381;SDS011;7789;51.364;12.358;2023-10-08T20:17:35;6.82;;;2.95;;
15381;SDS011;7789;51.364;12.358;2023-10-08T20:22:42;4.93;;;3.20;;
15381;SDS011;7789;51.364;12.358;2023-10-08T20:27:49;4.70;;;2.83;;
15381;SDS011;7789;51.364;12.358;2023-10-08T20:32:53;6.63;;;3.45;;
15381;SDS011;7789;51.364;12.358;2023-10-08T20:38:02;7.18;;;3.35;;
15381;SDS011;7789;51.364;12.358;2023-10-08T20:43:10;8.93;;;3.08;;
15381;SDS011;7789;51.364;12.358;2023-10-08T20:48:17;8.35;;;2.78;;
15381;SDS011;7789;51.364;12.358;2023-10-08T20:53:21;8.77;;;2.78;;
15381;SDS011;7789;51.364;12.358;2023-10-08T20:58:28;6.25;;;2.63;;
15381;SDS011;7789;51.364;12.358;2023-10-08T21:03:33;7.93;;;3.30;;
15381;SDS011;7789;51.364;12.358;2023-10-08T21:08:37;4.07;;;2.30;;
15381;SDS011;7789;51.364;12.358;2023-10-08T21:13:42;7.43;;;2.55;;
15381;SDS011;7789;51.364;12.358;2023-10-08T21:18:46;7.68;;;2.60;;
15381;SDS011;7789;51.364;12.358;2023-10-08T21:23:51;4.30;;;2.22;;
15381;SDS011;7789;51.364;12.358;2023-10-08T21:28:57;6.43;;;3.33;;
15381;SDS011;7789;51.364;12.358;2023-10-08T21:34:00;4.60;;;2.70;;
15381;SDS011;7789;51.364;12.358;2023-10-08T21:39:04;5.07;;;2.58;;
15381;SDS011;7789;51.364;12.358;2023-10-08T21:44:13;5.25;;;2.50;;
15381;SDS011;7789;51.364;12.358;2023-10-08T21:49:18;7.45;;;2.83;;
15381;SDS011;7789;51.364;12.358;2023-10-08T21:54:23;9.23;;;3.20;;
15381;SDS011;7789;51.364;12.358;2023-10-08T21:59:27;8.20;;;3.33;;
15381;SDS011;7789;51.364;12.358;2023-10-08T22:04:31;4.82;;;2.60;;
15381;SDS011;7789;51.364;12.358;2023-10-08T22:09:36;4.95;;;2.53;;
15381;SDS011;7789;51.364;12.358;2023-10-08T22:14:42;3.72;;;2.30;;
15381;SDS011;7789;51.364;12.358;2023-10-08T22:19:47;5.05;;;2.30;;
15381;SDS011;7789;51.364;12.358;2023-10-08T22:24:57;8.77;;;2.70;;
15381;SDS011;7789;51.364;12.358;2023-10-08T22:30:05;5.25;;;3.35;;
15381;SDS011;7789;51.364;12.358;2023-10-08T22:35:13;4.50;;;2.88;;
15381;SDS011;7789;51.364;12.358;2023-10-08T22:40:17;4.15;;;2.90;;
15381;SDS011;7789;51.364;12.358;2023-10-08T22:45:25;4.82;;;3.50;;
15381;SDS011;7789;51.364;12.358;2023-10-08T22:50:31;5.40;;;3.83;;
15381;SDS011;7789;51.364;12.358;2023-10-08T22:55:43;5.63;;;3.58;;
15381;SDS011;7789;51.364;12.358;2023-10-08T23:00:48;6.95;;;3.42;;
15381;SDS011;7789;51.364;12.358;2023-10-08T23:05:54;5.57;;;3.50;;
15381;SDS011;7789;51.364;12.358;2023-10-08T23:10:59;8.18;;;3.75;;
15381;SDS011;7789;51.364;12.358;2023-10-08T23:16:06;6.25;;;3.45;;
15381;SDS011;7789;51.364;12.358;2023-10-08T23:21:12;6.00;;;3.35;;
15381;SDS011;7789;51.364;12.358;2023-10-08T23:26:17;4.75;;;3.28;;
15381;SDS011;7789;51.364;12.358;2023-10-08T23:31:24;4.50;;;2.65;;
15381;SDS011;7789;51.364;12.358;2023-10-08T23:36:30;4.18;;;2.85;;
15381;SDS011;7789;51.364;12.358;2023-10-08T23:41:41;6.57;;;2.92;;
15381;SDS011;7789;51.364;12.358;2023-10-08T23:47:05;3.30;;;2.70;;
15381;SDS011;7789;51.364;12.358;2023-10-08T23:52:10;3.13;;;2.42;;
15381;SDS011;7789;51.364;12.358;2023-10-08T23:57:15;3.55;;;2.70;;
